sensor_id;sensor_type;location;lat;lon;timestamp;P1;durP1;ratioP1;P2;durP2;ratioP2
42198;SDS011;27868;45.184;5.786;2023-02-11T00:00:38;34.03;;;16.98;;
42198;SDS011;27868;45.184;5.786;2023-02-11T00:03:24;31.67;;;16.25;;
42198;SDS011;27868;45.184;5.786;2023-02-11T00:06:10;39.00;;;16.75;;
42198;SDS011;27868;45.184;5.786;2023-02-11T00:08:55;32.00;;;17.00;;
42198;SDS011;27868;45.184;5.786;2023-02-11T00:11:40;42.00;;;18.00;;
42198;SDS011;27868;45.184;5.786;2023-02-11T00:14:24;32.63;;;15.55;;
42198;SDS011;27868;45.184;5.786;2023-02-11T00:17:10;31.58;;;14.43;;
42198;SDS011;27868;45.184;5.786;2023-02-11T00:19:54;31.35;;;14.23;;
42198;SDS011;27868;45.184;5.786;2023-02-11T00:22:38;36.47;;;16.40;;
42198;SDS011;27868;45.184;5.786;2023-02-11T00:25:23;37.80;;;17.08;;
42198;SDS011;27868;45.184;5.786;2023-02-11T00:28:08;36.67;;;18.52;;
42198;SDS011;27868;45.184;5.786;2023-02-11T00:30:57;42.60;;;19.50;;
42198;SDS011;27868;45.184;5.786;2023-02-11T00:33:41;42.35;;;19.75;;
42198;SDS011;27868;45.184;5.786;2023-02-11T00:36:27;42.13;;;18.65;;
42198;SDS011;27868;45.184;5.786;2023-02-11T00:39:12;40.47;;;18.08;;
42198;SDS011;27868;45.184;5.786;2023-02-11T00:41:57;42.78;;;18.70;;
42198;SDS011;27868;45.184;5.786;2023-02-11T00:44:42;42.70;;;19.77;;
42198;SDS011;27868;45.184;5.786;2023-02-11T00:47:27;45.55;;;19.55;;
42198;SDS011;27868;45.184;5.786;2023-02-11T00:50:11;43.33;;;18.77;;
42198;SDS011;27868;45.184;5.786;2023-02-11T00:52:56;40.97;;;19.77;;
42198;SDS011;27868;45.184;5.786;2023-02-11T00:55:41;44.03;;;19.20;;
42198;SDS011;27868;45.184;5.786;2023-02-11T00:58:25;42.75;;;21.17;;
42198;SDS011;27868;45.184;5.786;2023-02-11T01:01:11;44.00;;;20.95;;
42198;SDS011;27868;45.184;5.786;2023-02-11T01:03:56;52.55;;;22.67;;
42198;SDS011;27868;45.184;5.786;2023-02-11T01:06:41;47.40;;;21.77;;
42198;SDS011;27868;45.184;5.786;2023-02-11T01:09:26;44.85;;;21.58;;
42198;SDS011;27868;45.184;5.786;2023-02-11T01:12:11;45.50;;;21.75;;
42198;SDS011;27868;45.184;5.786;2023-02-11T01:15:05;45.78;;;21.40;;
42198;SDS011;27868;45.184;5.786;2023-02-11T01:17:52;49.65;;;21.25;;
42198;SDS011;27868;45.184;5.786;2023-02-11T01:20:37;43.67;;;19.70;;
42198;SDS011;27868;45.184;5.786;2023-02-11T01:23:21;44.67;;;21.25;;
42198;SDS011;27868;45.184;5.786;2023-02-11T01:26:06;42.17;;;19.75;;
42198;SDS011;27868;45.184;5.786;2023-02-11T01:28:51;41.67;;;19.98;;
42198;SDS011;27868;45.184;5.786;2023-02-11T01:31:37;41.17;;;20.00;;
42198;SDS011;27868;45.184;5.786;2023-02-11T01:34:21;39.70;;;18.35;;
42198;SDS011;27868;45.184;5.786;2023-02-11T01:37:06;37.25;;;17.80;;
42198;SDS011;27868;45.184;5.786;2023-02-11T01:39:50;37.85;;;16.48;;
42198;SDS011;27868;45.184;5.786;2023-02-11T01:42:35;30.67;;;15.05;;
42198;SDS011;27868;45.184;5.786;2023-02-11T01:48:31;38.35;;;16.52;;
42198;SDS011;27868;45.184;5.786;2023-02-11T01:51:30;36.13;;;16.27;;
42198;SDS011;27868;45.184;5.786;2023-02-11T01:54:26;33.58;;;15.57;;
42198;SDS011;27868;45.184;5.786;2023-02-11T01:57:34;33.15;;;15.65;;
42198;SDS011;27868;45.184;5.786;2023-02-11T02:03:10;33.13;;;16.70;;
42198;SDS011;27868;45.184;5.786;2023-02-11T02:06:00;36.10;;;15.98;;
42198;SDS011;27868;45.184;5.786;2023-02-11T02:08:55;35.08;;;16.35;;
42198;SDS011;27868;45.184;5.786;2023-02-11T02:11:46;38.83;;;16.30;;
42198;SDS011;27868;45.184;5.786;2023-02-11T02:14:31;37.45;;;16.75;;
42198;SDS011;27868;45.184;5.786;2023-02-11T02:17:25;35.30;;;16.77;;
42198;SDS011;27868;45.184;5.786;2023-02-11T02:23:28;36.60;;;17.48;;
42198;SDS011;27868;45.184;5.786;2023-02-11T02:29:37;35.13;;;16.67;;
42198;SDS011;27868;45.184;5.786;2023-02-11T02:38:31;33.20;;;16.27;;
42198;SDS011;27868;45.184;5.786;2023-02-11T02:41:22;38.35;;;17.27;;
42198;SDS011;27868;45.184;5.786;2023-02-11T02:44:15;37.60;;;18.38;;
42198;SDS011;27868;45.184;5.786;2023-02-11T02:47:02;38.28;;;18.30;;
42198;SDS011;27868;45.184;5.786;2023-02-11T02:49:46;40.42;;;18.25;;
42198;SDS011;27868;45.184;5.786;2023-02-11T03:02:50;42.88;;;20.45;;
42198;SDS011;27868;45.184;5.786;2023-02-11T03:05:22;42.50;;;19.42;;
42198;SDS011;27868;45.184;5.786;2023-02-11T03:08:33;48.67;;;21.30;;
42198;SDS011;27868;45.184;5.786;2023-02-11T03:11:26;46.40;;;21.60;;
42198;SDS011;27868;45.184;5.786;2023-02-11T03:14:13;46.45;;;20.58;;
42198;SDS011;27868;45.184;5.786;2023-02-11T03:17:00;44.08;;;21.45;;
42198;SDS011;27868;45.184;5.786;2023-02-11T03:19:48;44.72;;;20.25;;
42198;SDS011;27868;45.184;5.786;2023-02-11T03:22:37;43.08;;;19.92;;
42198;SDS011;27868;45.184;5.786;2023-02-11T03:25:27;40.53;;;20.35;;
42198;SDS011;27868;45.184;5.786;2023-02-11T03:28:23;41.70;;;21.27;;
42198;SDS011;27868;45.184;5.786;2023-02-11T03:34:18;44.58;;;20.58;;
42198;SDS011;27868;45.184;5.786;2023-02-11T03:37:08;44.65;;;21.05;;
42198;SDS011;27868;45.184;5.786;2023-02-11T03:42:49;42.70;;;20.73;;
42198;SDS011;27868;45.184;5.786;2023-02-11T03:45:56;42.55;;;20.17;;
42198;SDS011;27868;45.184;5.786;2023-02-11T03:48:43;44.10;;;20.08;;
42198;SDS011;27868;45.184;5.786;2023-02-11T03:51:32;48.78;;;21.13;;
42198;SDS011;27868;45.184;5.786;2023-02-11T03:54:20;48.22;;;20.88;;
42198;SDS011;27868;45.184;5.786;2023-02-11T03:57:09;45.35;;;20.48;;
42198;SDS011;27868;45.184;5.786;2023-02-11T03:59:56;42.38;;;21.88;;
42198;SDS011;27868;45.184;5.786;2023-02-11T04:02:42;44.85;;;20.17;;
42198;SDS011;27868;45.184;5.786;2023-02-11T04:05:27;41.15;;;20.67;;
42198;SDS011;27868;45.184;5.786;2023-02-11T04:08:12;45.75;;;21.15;;
42198;SDS011;27868;45.184;5.786;2023-02-11T04:10:57;43.50;;;21.00;;
42198;SDS011;27868;45.184;5.786;2023-02-11T04:13:42;51.72;;;21.67;;
42198;SDS011;27868;45.184;5.786;2023-02-11T04:16:26;49.13;;;22.63;;
42198;SDS011;27868;45.184;5.786;2023-02-11T04:19:13;54.10;;;21.05;;
42198;SDS011;27868;45.184;5.786;2023-02-11T04:21:57;48.85;;;23.33;;
42198;SDS011;27868;45.184;5.786;2023-02-11T04:24:42;43.90;;;20.20;;
42198;SDS011;27868;45.184;5.786;2023-02-11T04:27:27;44.75;;;20.80;;
42198;SDS011;27868;45.184;5.786;2023-02-11T04:30:11;47.60;;;20.67;;
42198;SDS011;27868;45.184;5.786;2023-02-11T04:32:57;46.35;;;20.23;;
42198;SDS011;27868;45.184;5.786;2023-02-11T04:35:42;44.20;;;20.27;;
42198;SDS011;27868;45.184;5.786;2023-02-11T04:38:26;43.67;;;20.45;;
42198;SDS011;27868;45.184;5.786;2023-02-11T04:41:11;46.33;;;21.65;;
42198;SDS011;27868;45.184;5.786;2023-02-11T04:43:56;51.38;;;22.50;;
42198;SDS011;27868;45.184;5.786;2023-02-11T04:46:40;44.28;;;19.23;;
42198;SDS011;27868;45.184;5.786;2023-02-11T04:49:25;39.78;;;18.75;;
42198;SDS011;27868;45.184;5.786;2023-02-11T04:52:10;36.97;;;17.75;;
42198;SDS011;27868;45.184;5.786;2023-02-11T04:54:55;40.13;;;18.65;;
42198;SDS011;27868;45.184;5.786;2023-02-11T04:57:39;39.05;;;18.42;;
42198;SDS011;27868;45.184;5.786;2023-02-11T05:00:24;38.50;;;17.50;;
42198;SDS011;27868;45.184;5.786;2023-02-11T05:03:08;39.42;;;17.65;;
42198;SDS011;27868;45.184;5.786;2023-02-11T05:05:53;43.13;;;18.40;;
42198;SDS011;27868;45.184;5.786;2023-02-11T05:08:39;40.97;;;17.55;;
42198;SDS011;27868;45.184;5.786;2023-02-11T05:11:24;41.35;;;19.58;;
42198;SDS011;27868;45.184;5.786;2023-02-11T05:14:09;39.55;;;17.50;;
42198;SDS011;27868;45.184;5.786;2023-02-11T05:16:53;36.85;;;17.95;;
42198;SDS011;27868;45.184;5.786;2023-02-11T05:19:38;39.30;;;17.30;;
42198;SDS011;27868;45.184;5.786;2023-02-11T05:22:22;38.22;;;17.42;;
42198;SDS011;27868;45.184;5.786;2023-02-11T05:25:07;38.15;;;17.80;;
42198;SDS011;27868;45.184;5.786;2023-02-11T05:27:53;45.58;;;19.63;;
42198;SDS011;27868;45.184;5.786;2023-02-11T05:30:37;42.50;;;18.33;;
42198;SDS011;27868;45.184;5.786;2023-02-11T05:33:24;38.42;;;17.27;;
42198;SDS011;27868;45.184;5.786;2023-02-11T05:36:10;37.60;;;18.23;;
42198;SDS011;27868;45.184;5.786;2023-02-11T05:38:56;38.83;;;18.83;;
42198;SDS011;27868;45.184;5.786;2023-02-11T05:41:41;38.42;;;19.00;;
42198;SDS011;27868;45.184;5.786;2023-02-11T05:44:25;41.70;;;19.73;;
42198;SDS011;27868;45.184;5.786;2023-02-11T05:47:09;42.97;;;20.42;;
42198;SDS011;27868;45.184;5.786;2023-02-11T05:49:55;37.15;;;18.88;;
42198;SDS011;27868;45.184;5.786;2023-02-11T05:52:40;36.92;;;18.48;;
42198;SDS011;27868;45.184;5.786;2023-02-11T05:55:24;39.85;;;19.90;;
42198;SDS011;27868;45.184;5.786;2023-02-11T05:58:09;45.35;;;19.75;;
42198;SDS011;27868;45.184;5.786;2023-02-11T06:00:54;41.42;;;19.25;;
42198;SDS011;27868;45.184;5.786;2023-02-11T06:03:39;39.80;;;18.30;;
42198;SDS011;27868;45.184;5.786;2023-02-11T06:06:24;38.70;;;18.63;;
42198;SDS011;27868;45.184;5.786;2023-02-11T06:09:09;37.80;;;18.60;;
42198;SDS011;27868;45.184;5.786;2023-02-11T06:11:55;41.47;;;17.35;;
42198;SDS011;27868;45.184;5.786;2023-02-11T06:14:39;42.83;;;18.95;;
42198;SDS011;27868;45.184;5.786;2023-02-11T06:17:24;40.15;;;18.58;;
42198;SDS011;27868;45.184;5.786;2023-02-11T06:20:09;44.47;;;19.05;;
42198;SDS011;27868;45.184;5.786;2023-02-11T06:22:54;40.30;;;18.85;;
42198;SDS011;27868;45.184;5.786;2023-02-11T06:25:39;42.78;;;18.73;;
42198;SDS011;27868;45.184;5.786;2023-02-11T06:28:23;41.20;;;18.92;;
42198;SDS011;27868;45.184;5.786;2023-02-11T06:31:08;41.95;;;19.83;;
42198;SDS011;27868;45.184;5.786;2023-02-11T06:33:53;40.22;;;19.02;;
42198;SDS011;27868;45.184;5.786;2023-02-11T06:36:41;37.58;;;18.45;;
42198;SDS011;27868;45.184;5.786;2023-02-11T06:39:27;37.70;;;18.38;;
42198;SDS011;27868;45.184;5.786;2023-02-11T06:42:11;42.70;;;20.48;;
42198;SDS011;27868;45.184;5.786;2023-02-11T06:44:56;42.40;;;19.00;;
42198;SDS011;27868;45.184;5.786;2023-02-11T06:47:40;40.17;;;19.30;;
42198;SDS011;27868;45.184;5.786;2023-02-11T06:50:25;38.85;;;19.58;;
42198;SDS011;27868;45.184;5.786;2023-02-11T06:53:10;36.60;;;18.95;;
42198;SDS011;27868;45.184;5.786;2023-02-11T06:55:54;41.33;;;19.25;;
42198;SDS011;27868;45.184;5.786;2023-02-11T06:58:39;40.92;;;19.63;;
42198;SDS011;27868;45.184;5.786;2023-02-11T07:01:23;45.05;;;20.77;;
42198;SDS011;27868;45.184;5.786;2023-02-11T07:04:09;46.60;;;20.77;;
42198;SDS011;27868;45.184;5.786;2023-02-11T07:06:54;42.92;;;21.52;;
42198;SDS011;27868;45.184;5.786;2023-02-11T07:09:39;45.90;;;21.77;;
42198;SDS011;27868;45.184;5.786;2023-02-11T07:12:23;43.60;;;20.90;;
42198;SDS011;27868;45.184;5.786;2023-02-11T07:15:08;46.47;;;21.27;;
42198;SDS011;27868;45.184;5.786;2023-02-11T07:17:53;50.75;;;23.30;;
42198;SDS011;27868;45.184;5.786;2023-02-11T07:20:37;43.47;;;20.42;;
42198;SDS011;27868;45.184;5.786;2023-02-11T07:23:22;41.50;;;19.38;;
42198;SDS011;27868;45.184;5.786;2023-02-11T07:26:07;38.45;;;18.60;;
42198;SDS011;27868;45.184;5.786;2023-02-11T07:28:54;45.08;;;19.20;;
42198;SDS011;27868;45.184;5.786;2023-02-11T07:31:39;42.38;;;17.85;;
42198;SDS011;27868;45.184;5.786;2023-02-11T07:34:23;39.08;;;19.17;;
42198;SDS011;27868;45.184;5.786;2023-02-11T07:37:08;39.88;;;18.85;;
42198;SDS011;27868;45.184;5.786;2023-02-11T07:39:54;39.00;;;17.88;;
42198;SDS011;27868;45.184;5.786;2023-02-11T07:42:38;45.58;;;20.13;;
42198;SDS011;27868;45.184;5.786;2023-02-11T07:45:26;44.28;;;20.13;;
42198;SDS011;27868;45.184;5.786;2023-02-11T07:48:10;40.33;;;19.60;;
42198;SDS011;27868;45.184;5.786;2023-02-11T07:50:55;41.75;;;19.15;;
42198;SDS011;27868;45.184;5.786;2023-02-11T07:53:47;40.63;;;18.70;;
42198;SDS011;27868;45.184;5.786;2023-02-11T07:56:33;44.50;;;20.10;;
42198;SDS011;27868;45.184;5.786;2023-02-11T07:59:17;43.40;;;20.33;;
42198;SDS011;27868;45.184;5.786;2023-02-11T08:02:02;44.63;;;21.75;;
42198;SDS011;27868;45.184;5.786;2023-02-11T08:04:47;45.38;;;22.42;;
42198;SDS011;27868;45.184;5.786;2023-02-11T08:07:33;48.63;;;23.27;;
42198;SDS011;27868;45.184;5.786;2023-02-11T08:10:17;48.40;;;24.25;;
42198;SDS011;27868;45.184;5.786;2023-02-11T08:13:02;50.15;;;22.52;;
42198;SDS011;27868;45.184;5.786;2023-02-11T08:15:47;50.53;;;23.63;;
42198;SDS011;27868;45.184;5.786;2023-02-11T08:18:32;49.13;;;23.65;;
42198;SDS011;27868;45.184;5.786;2023-02-11T08:21:18;49.53;;;22.15;;
42198;SDS011;27868;45.184;5.786;2023-02-11T08:24:03;45.90;;;22.38;;
42198;SDS011;27868;45.184;5.786;2023-02-11T08:26:49;46.65;;;21.83;;
42198;SDS011;27868;45.184;5.786;2023-02-11T08:29:34;47.50;;;21.85;;
42198;SDS011;27868;45.184;5.786;2023-02-11T08:32:19;46.53;;;21.95;;
42198;SDS011;27868;45.184;5.786;2023-02-11T08:35:05;50.38;;;24.17;;
42198;SDS011;27868;45.184;5.786;2023-02-11T08:37:51;48.90;;;22.80;;
42198;SDS011;27868;45.184;5.786;2023-02-11T08:40:36;46.10;;;22.25;;
42198;SDS011;27868;45.184;5.786;2023-02-11T08:43:20;43.53;;;21.13;;
42198;SDS011;27868;45.184;5.786;2023-02-11T08:46:06;43.72;;;20.80;;
42198;SDS011;27868;45.184;5.786;2023-02-11T08:48:52;42.58;;;20.40;;
42198;SDS011;27868;45.184;5.786;2023-02-11T08:51:37;45.92;;;21.58;;
42198;SDS011;27868;45.184;5.786;2023-02-11T08:54:21;43.45;;;20.73;;
42198;SDS011;27868;45.184;5.786;2023-02-11T08:57:06;42.45;;;22.05;;
42198;SDS011;27868;45.184;5.786;2023-02-11T08:59:50;42.97;;;20.83;;
42198;SDS011;27868;45.184;5.786;2023-02-11T09:02:35;47.28;;;20.58;;
42198;SDS011;27868;45.184;5.786;2023-02-11T09:05:20;42.75;;;20.55;;
42198;SDS011;27868;45.184;5.786;2023-02-11T09:08:05;45.30;;;19.95;;
42198;SDS011;27868;45.184;5.786;2023-02-11T09:10:50;40.25;;;19.45;;
42198;SDS011;27868;45.184;5.786;2023-02-11T09:13:35;38.97;;;19.65;;
42198;SDS011;27868;45.184;5.786;2023-02-11T09:16:25;42.35;;;20.60;;
42198;SDS011;27868;45.184;5.786;2023-02-11T09:19:12;49.03;;;20.77;;
42198;SDS011;27868;45.184;5.786;2023-02-11T09:21:57;43.25;;;19.95;;
42198;SDS011;27868;45.184;5.786;2023-02-11T09:24:42;42.45;;;20.52;;
42198;SDS011;27868;45.184;5.786;2023-02-11T09:27:27;42.50;;;20.17;;
42198;SDS011;27868;45.184;5.786;2023-02-11T09:30:12;46.88;;;19.77;;
42198;SDS011;27868;45.184;5.786;2023-02-11T09:32:57;39.95;;;19.40;;
42198;SDS011;27868;45.184;5.786;2023-02-11T09:35:42;40.08;;;19.58;;
42198;SDS011;27868;45.184;5.786;2023-02-11T09:38:27;32.78;;;14.82;;
42198;SDS011;27868;45.184;5.786;2023-02-11T09:41:36;31.65;;;14.75;;
42198;SDS011;27868;45.184;5.786;2023-02-11T09:44:35;31.30;;;14.73;;
42198;SDS011;27868;45.184;5.786;2023-02-11T09:47:28;34.78;;;15.23;;
42198;SDS011;27868;45.184;5.786;2023-02-11T09:50:23;34.30;;;15.35;;
42198;SDS011;27868;45.184;5.786;2023-02-11T09:53:26;28.95;;;14.65;;
42198;SDS011;27868;45.184;5.786;2023-02-11T09:56:13;31.08;;;13.75;;
42198;SDS011;27868;45.184;5.786;2023-02-11T09:58:58;30.83;;;14.02;;
42198;SDS011;27868;45.184;5.786;2023-02-11T10:10:59;30.88;;;15.13;;
42198;SDS011;27868;45.184;5.786;2023-02-11T10:23:32;25.83;;;13.02;;
42198;SDS011;27868;45.184;5.786;2023-02-11T10:26:19;28.65;;;13.48;;
42198;SDS011;27868;45.184;5.786;2023-02-11T10:32:26;28.88;;;12.98;;
42198;SDS011;27868;45.184;5.786;2023-02-11T10:35:31;26.08;;;12.48;;
42198;SDS011;27868;45.184;5.786;2023-02-11T10:38:16;27.85;;;13.10;;
42198;SDS011;27868;45.184;5.786;2023-02-11T10:41:01;28.35;;;13.68;;
42198;SDS011;27868;45.184;5.786;2023-02-11T10:43:47;26.55;;;13.38;;
42198;SDS011;27868;45.184;5.786;2023-02-11T10:46:34;29.25;;;13.38;;
42198;SDS011;27868;45.184;5.786;2023-02-11T10:49:33;29.40;;;12.77;;
42198;SDS011;27868;45.184;5.786;2023-02-11T10:52:23;30.17;;;13.93;;
42198;SDS011;27868;45.184;5.786;2023-02-11T10:58:00;29.88;;;12.93;;
42198;SDS011;27868;45.184;5.786;2023-02-11T11:00:48;30.25;;;13.75;;
42198;SDS011;27868;45.184;5.786;2023-02-11T11:06:32;26.60;;;12.57;;
42198;SDS011;27868;45.184;5.786;2023-02-11T11:09:27;25.42;;;11.50;;
42198;SDS011;27868;45.184;5.786;2023-02-11T11:15:28;25.00;;;12.23;;
42198;SDS011;27868;45.184;5.786;2023-02-11T11:18:15;24.48;;;12.80;;
42198;SDS011;27868;45.184;5.786;2023-02-11T11:21:05;26.13;;;12.38;;
42198;SDS011;27868;45.184;5.786;2023-02-11T11:23:57;26.98;;;13.05;;
42198;SDS011;27868;45.184;5.786;2023-02-11T11:26:45;25.52;;;12.85;;
42198;SDS011;27868;45.184;5.786;2023-02-11T11:32:26;25.02;;;11.88;;
42198;SDS011;27868;45.184;5.786;2023-02-11T11:35:19;33.13;;;12.23;;
42198;SDS011;27868;45.184;5.786;2023-02-11T11:38:16;23.95;;;12.18;;
42198;SDS011;27868;45.184;5.786;2023-02-11T11:47:19;22.08;;;10.50;;
42198;SDS011;27868;45.184;5.786;2023-02-11T11:50:22;26.95;;;11.45;;
42198;SDS011;27868;45.184;5.786;2023-02-11T11:56:16;22.20;;;10.50;;
42198;SDS011;27868;45.184;5.786;2023-02-11T11:59:10;19.00;;;9.90;;
42198;SDS011;27868;45.184;5.786;2023-02-11T12:08:40;21.38;;;10.80;;
42198;SDS011;27868;45.184;5.786;2023-02-11T12:26:44;18.40;;;9.02;;
42198;SDS011;27868;45.184;5.786;2023-02-11T12:41:06;19.17;;;8.90;;
42198;SDS011;27868;45.184;5.786;2023-02-11T12:44:36;15.93;;;8.45;;
42198;SDS011;27868;45.184;5.786;2023-02-11T12:50:56;18.35;;;9.02;;
42198;SDS011;27868;45.184;5.786;2023-02-11T12:56:54;20.33;;;9.48;;
42198;SDS011;27868;45.184;5.786;2023-02-11T13:08:44;24.98;;;10.80;;
42198;SDS011;27868;45.184;5.786;2023-02-11T13:11:34;20.60;;;10.85;;
42198;SDS011;27868;45.184;5.786;2023-02-11T13:14:32;23.58;;;11.30;;
42198;SDS011;27868;45.184;5.786;2023-02-11T13:17:24;22.58;;;10.80;;
42198;SDS011;27868;45.184;5.786;2023-02-11T13:32:10;19.90;;;10.57;;
42198;SDS011;27868;45.184;5.786;2023-02-11T13:34:57;17.42;;;10.52;;
42198;SDS011;27868;45.184;5.786;2023-02-11T13:37:42;19.83;;;11.05;;
42198;SDS011;27868;45.184;5.786;2023-02-11T13:40:35;20.30;;;10.07;;
42198;SDS011;27868;45.184;5.786;2023-02-11T13:43:22;22.35;;;10.80;;
42198;SDS011;27868;45.184;5.786;2023-02-11T13:46:12;19.55;;;10.38;;
42198;SDS011;27868;45.184;5.786;2023-02-11T13:48:57;22.73;;;10.65;;
42198;SDS011;27868;45.184;5.786;2023-02-11T13:51:42;20.67;;;10.00;;
42198;SDS011;27868;45.184;5.786;2023-02-11T13:54:28;19.02;;;10.10;;
42198;SDS011;27868;45.184;5.786;2023-02-11T14:03:22;20.75;;;10.25;;
42198;SDS011;27868;45.184;5.786;2023-02-11T14:06:26;18.35;;;10.30;;
42198;SDS011;27868;45.184;5.786;2023-02-11T14:12:32;22.52;;;10.30;;
42198;SDS011;27868;45.184;5.786;2023-02-11T14:15:18;21.83;;;9.77;;
42198;SDS011;27868;45.184;5.786;2023-02-11T14:18:35;19.35;;;10.48;;
42198;SDS011;27868;45.184;5.786;2023-02-11T14:27:08;20.50;;;10.27;;
42198;SDS011;27868;45.184;5.786;2023-02-11T14:37:02;20.58;;;9.32;;
42198;SDS011;27868;45.184;5.786;2023-02-11T14:39:57;24.00;;;10.95;;
42198;SDS011;27868;45.184;5.786;2023-02-11T14:42:54;40.55;;;18.00;;
42198;SDS011;27868;45.184;5.786;2023-02-11T14:45:40;19.98;;;10.43;;
42198;SDS011;27868;45.184;5.786;2023-02-11T14:48:30;21.30;;;9.97;;
42198;SDS011;27868;45.184;5.786;2023-02-11T14:51:22;19.55;;;9.93;;
42198;SDS011;27868;45.184;5.786;2023-02-11T14:54:11;22.90;;;10.60;;
42198;SDS011;27868;45.184;5.786;2023-02-11T14:59:56;20.42;;;9.85;;
42198;SDS011;27868;45.184;5.786;2023-02-11T15:02:45;20.05;;;9.73;;
42198;SDS011;27868;45.184;5.786;2023-02-11T15:05:30;22.25;;;9.90;;
42198;SDS011;27868;45.184;5.786;2023-02-11T15:08:15;19.77;;;9.27;;
42198;SDS011;27868;45.184;5.786;2023-02-11T15:10:59;19.45;;;10.93;;
42198;SDS011;27868;45.184;5.786;2023-02-11T15:13:47;23.35;;;11.00;;
42198;SDS011;27868;45.184;5.786;2023-02-11T15:16:33;20.33;;;10.30;;
42198;SDS011;27868;45.184;5.786;2023-02-11T15:19:24;23.30;;;12.07;;
42198;SDS011;27868;45.184;5.786;2023-02-11T15:22:21;16.77;;;9.52;;
42198;SDS011;27868;45.184;5.786;2023-02-11T15:25:10;20.05;;;9.82;;
42198;SDS011;27868;45.184;5.786;2023-02-11T15:27:59;19.08;;;10.13;;
42198;SDS011;27868;45.184;5.786;2023-02-11T15:30:44;20.88;;;9.98;;
42198;SDS011;27868;45.184;5.786;2023-02-11T15:33:29;19.75;;;9.85;;
42198;SDS011;27868;45.184;5.786;2023-02-11T15:36:16;23.30;;;11.60;;
42198;SDS011;27868;45.184;5.786;2023-02-11T15:47:58;23.58;;;10.75;;
42198;SDS011;27868;45.184;5.786;2023-02-11T15:50:53;19.33;;;9.98;;
42198;SDS011;27868;45.184;5.786;2023-02-11T15:53:41;17.92;;;9.80;;
42198;SDS011;27868;45.184;5.786;2023-02-11T15:56:33;22.83;;;10.75;;
42198;SDS011;27868;45.184;5.786;2023-02-11T15:59:26;22.17;;;10.07;;
42198;SDS011;27868;45.184;5.786;2023-02-11T16:05:03;32.05;;;13.30;;
42198;SDS011;27868;45.184;5.786;2023-02-11T16:07:52;22.67;;;12.55;;
42198;SDS011;27868;45.184;5.786;2023-02-11T16:10:37;18.25;;;10.23;;
42198;SDS011;27868;45.184;5.786;2023-02-11T16:13:22;19.60;;;11.20;;
42198;SDS011;27868;45.184;5.786;2023-02-11T16:16:16;21.77;;;10.55;;
42198;SDS011;27868;45.184;5.786;2023-02-11T16:19:02;19.10;;;9.45;;
42198;SDS011;27868;45.184;5.786;2023-02-11T16:21:48;19.38;;;10.15;;
42198;SDS011;27868;45.184;5.786;2023-02-11T16:24:34;19.15;;;9.82;;
42198;SDS011;27868;45.184;5.786;2023-02-11T16:27:22;20.90;;;9.38;;
42198;SDS011;27868;45.184;5.786;2023-02-11T16:30:28;20.48;;;10.07;;
42198;SDS011;27868;45.184;5.786;2023-02-11T16:33:17;23.10;;;9.75;;
42198;SDS011;27868;45.184;5.786;2023-02-11T16:36:05;22.77;;;9.77;;
42198;SDS011;27868;45.184;5.786;2023-02-11T16:38:54;19.33;;;9.00;;
42198;SDS011;27868;45.184;5.786;2023-02-11T16:41:39;22.42;;;9.80;;
42198;SDS011;27868;45.184;5.786;2023-02-11T16:44:24;18.92;;;9.75;;
42198;SDS011;27868;45.184;5.786;2023-02-11T16:47:13;24.27;;;9.95;;
42198;SDS011;27868;45.184;5.786;2023-02-11T16:50:02;18.52;;;9.35;;
42198;SDS011;27868;45.184;5.786;2023-02-11T16:52:51;19.42;;;9.65;;
42198;SDS011;27868;45.184;5.786;2023-02-11T16:55:35;22.92;;;10.45;;
42198;SDS011;27868;45.184;5.786;2023-02-11T16:58:20;19.55;;;9.52;;
42198;SDS011;27868;45.184;5.786;2023-02-11T17:01:05;23.05;;;11.07;;
42198;SDS011;27868;45.184;5.786;2023-02-11T17:03:50;20.42;;;9.65;;
42198;SDS011;27868;45.184;5.786;2023-02-11T17:06:34;20.02;;;10.48;;
42198;SDS011;27868;45.184;5.786;2023-02-11T17:09:20;25.77;;;10.55;;
42198;SDS011;27868;45.184;5.786;2023-02-11T17:12:07;18.90;;;9.27;;
42198;SDS011;27868;45.184;5.786;2023-02-11T17:14:52;20.33;;;9.93;;
42198;SDS011;27868;45.184;5.786;2023-02-11T17:17:37;17.75;;;9.18;;
42198;SDS011;27868;45.184;5.786;2023-02-11T17:20:22;19.17;;;10.05;;
42198;SDS011;27868;45.184;5.786;2023-02-11T17:23:08;21.33;;;10.30;;
42198;SDS011;27868;45.184;5.786;2023-02-11T17:25:53;22.63;;;10.68;;
42198;SDS011;27868;45.184;5.786;2023-02-11T17:28:39;21.30;;;8.95;;
42198;SDS011;27868;45.184;5.786;2023-02-11T17:31:24;19.45;;;10.02;;
42198;SDS011;27868;45.184;5.786;2023-02-11T17:34:09;19.60;;;9.93;;
42198;SDS011;27868;45.184;5.786;2023-02-11T17:36:54;22.52;;;10.10;;
42198;SDS011;27868;45.184;5.786;2023-02-11T17:39:39;19.58;;;9.95;;
42198;SDS011;27868;45.184;5.786;2023-02-11T17:42:24;25.05;;;11.15;;
42198;SDS011;27868;45.184;5.786;2023-02-11T17:45:09;28.58;;;11.68;;
42198;SDS011;27868;45.184;5.786;2023-02-11T17:47:56;20.90;;;10.75;;
42198;SDS011;27868;45.184;5.786;2023-02-11T17:50:41;22.80;;;10.77;;
42198;SDS011;27868;45.184;5.786;2023-02-11T17:53:26;23.58;;;11.00;;
42198;SDS011;27868;45.184;5.786;2023-02-11T17:56:11;21.95;;;10.60;;
42198;SDS011;27868;45.184;5.786;2023-02-11T17:58:55;23.17;;;11.23;;
42198;SDS011;27868;45.184;5.786;2023-02-11T18:01:41;21.92;;;11.13;;
42198;SDS011;27868;45.184;5.786;2023-02-11T18:04:26;20.38;;;10.70;;
42198;SDS011;27868;45.184;5.786;2023-02-11T18:07:11;21.33;;;11.55;;
42198;SDS011;27868;45.184;5.786;2023-02-11T18:09:56;29.55;;;13.90;;
42198;SDS011;27868;45.184;5.786;2023-02-11T18:12:41;27.40;;;13.45;;
42198;SDS011;27868;45.184;5.786;2023-02-11T18:15:26;24.85;;;12.13;;
42198;SDS011;27868;45.184;5.786;2023-02-11T18:18:10;26.95;;;12.93;;
42198;SDS011;27868;45.184;5.786;2023-02-11T18:20:56;24.60;;;12.73;;
42198;SDS011;27868;45.184;5.786;2023-02-11T18:23:42;28.00;;;12.68;;
42198;SDS011;27868;45.184;5.786;2023-02-11T18:26:27;22.27;;;11.80;;
42198;SDS011;27868;45.184;5.786;2023-02-11T18:29:11;25.95;;;11.93;;
42198;SDS011;27868;45.184;5.786;2023-02-11T18:31:56;29.17;;;12.77;;
42198;SDS011;27868;45.184;5.786;2023-02-11T18:34:41;53.38;;;19.77;;
42198;SDS011;27868;45.184;5.786;2023-02-11T18:37:27;60.28;;;22.58;;
42198;SDS011;27868;45.184;5.786;2023-02-11T18:40:11;32.10;;;14.88;;
42198;SDS011;27868;45.184;5.786;2023-02-11T18:42:57;33.15;;;14.85;;
42198;SDS011;27868;45.184;5.786;2023-02-11T18:45:43;36.63;;;16.73;;
42198;SDS011;27868;45.184;5.786;2023-02-11T18:48:31;30.05;;;14.68;;
42198;SDS011;27868;45.184;5.786;2023-02-11T18:51:16;32.75;;;15.80;;
42198;SDS011;27868;45.184;5.786;2023-02-11T18:54:01;25.88;;;12.30;;
42198;SDS011;27868;45.184;5.786;2023-02-11T18:56:46;77.35;;;28.30;;
42198;SDS011;27868;45.184;5.786;2023-02-11T18:59:31;91.95;;;33.85;;
42198;SDS011;27868;45.184;5.786;2023-02-11T19:02:16;38.30;;;18.02;;
42198;SDS011;27868;45.184;5.786;2023-02-11T19:05:02;26.17;;;13.30;;
42198;SDS011;27868;45.184;5.786;2023-02-11T19:07:49;23.85;;;10.80;;
42198;SDS011;27868;45.184;5.786;2023-02-11T19:10:34;22.85;;;12.30;;
42198;SDS011;27868;45.184;5.786;2023-02-11T19:13:22;36.40;;;16.20;;
42198;SDS011;27868;45.184;5.786;2023-02-11T19:16:06;31.20;;;14.18;;